createdAt,value
2022-09-23T00:01:25.145Z,3.53
2022-09-23T00:03:53.513Z,15.83
2022-09-23T00:06:22.856Z,3.60
2022-09-23T00:08:51.230Z,2.60
2022-09-23T00:11:24.240Z,2.70
2022-09-23T00:13:54.505Z,2.90
2022-09-23T00:16:28.700Z,3.37
2022-09-23T00:18:57.025Z,3.70
2022-09-23T00:21:25.516Z,3.43
2022-09-23T00:23:53.833Z,2.70
2022-09-23T00:26:22.745Z,1.80
2022-09-23T00:28:51.101Z,2.27
2022-09-23T00:31:22.282Z,4.27
2022-09-23T00:34:00.941Z,4.37
2022-09-23T00:36:29.410Z,5.63
2022-09-23T00:38:57.692Z,2.80
2022-09-23T00:41:26.215Z,2.20
2022-09-23T00:44:01.061Z,2.33
2022-09-23T00:46:38.012Z,2.23
2022-09-23T00:49:25.582Z,2.80
2022-09-23T00:52:02.808Z,2.20
2022-09-23T00:54:31.331Z,3.63
2022-09-23T00:57:00.011Z,4.23
2022-09-23T00:59:29.357Z,3.63
2022-09-23T01:01:58.135Z,2.80
2022-09-23T01:04:27.540Z,2.63
2022-09-23T01:06:55.728Z,2.30
2022-09-23T01:09:23.888Z,2.90
2022-09-23T01:11:52.039Z,2.40
2022-09-23T01:14:32.377Z,2.13
2022-09-23T01:17:07.734Z,2.23
2022-09-23T01:19:36.188Z,2.40
2022-09-23T01:22:28.142Z,3.63
2022-09-23T01:24:59.687Z,2.73
2022-09-23T01:27:46.224Z,2.17
2022-09-23T01:30:31.708Z,2.40
2022-09-23T01:33:43.438Z,1.93
2022-09-23T01:36:19.337Z,2.20
2022-09-23T01:39:09.563Z,2.23
2022-09-23T01:42:07.432Z,2.40
2022-09-23T01:44:43.265Z,2.23
2022-09-23T01:47:15.280Z,2.30
2022-09-23T01:50:30.753Z,2.10
2022-09-23T01:53:10.915Z,2.30
2022-09-23T01:55:41.510Z,2.67
2022-09-23T01:58:20.096Z,2.70
2022-09-23T02:00:56.055Z,2.17
2022-09-23T02:03:32.621Z,2.30
2022-09-23T02:06:23.769Z,2.47
2022-09-23T02:08:57.851Z,4.13
2022-09-23T02:11:27.238Z,3.70
2022-09-23T02:14:35.400Z,2.43
2022-09-23T02:17:08.826Z,2.10
2022-09-23T02:19:48.151Z,2.83
2022-09-23T02:22:22.369Z,2.20
2022-09-23T02:24:50.744Z,2.83
2022-09-23T02:27:35.595Z,2.70
2022-09-23T02:30:09.872Z,3.17
2022-09-23T02:32:53.523Z,4.07
2022-09-23T02:35:33.129Z,2.80
2022-09-23T02:38:19.608Z,3.00
2022-09-23T02:40:54.829Z,2.70
2022-09-23T02:43:34.131Z,2.67
2022-09-23T02:46:05.865Z,2.60
2022-09-23T02:48:43.613Z,2.30
2022-09-23T02:51:11.871Z,3.13
2022-09-23T02:53:40.223Z,4.17
2022-09-23T02:56:21.241Z,3.13
2022-09-23T02:58:50.353Z,3.83
2022-09-23T03:01:45.492Z,3.00
2022-09-23T03:04:16.822Z,2.93
2022-09-23T03:06:55.260Z,3.47
2022-09-23T03:09:53.138Z,3.23
2022-09-23T03:12:40.263Z,4.03
2022-09-23T03:15:27.159Z,5.67
2022-09-23T03:18:13.132Z,6.10
2022-09-23T03:20:50.793Z,4.97
2022-09-23T03:23:23.843Z,4.30
2022-09-23T03:25:54.218Z,4.67
2022-09-23T03:28:22.805Z,4.97
2022-09-23T03:30:51.352Z,5.63
2022-09-23T03:33:21.147Z,5.10
2022-09-23T03:36:19.975Z,5.57
2022-09-23T03:38:53.052Z,5.27
2022-09-23T03:41:30.528Z,7.30
2022-09-23T03:43:59.033Z,6.57
2022-09-23T03:46:28.764Z,6.43
2022-09-23T03:48:59.996Z,5.10
2022-09-23T03:51:28.289Z,3.40
2022-09-23T03:53:56.582Z,5.23
2022-09-23T03:56:24.798Z,6.00
2022-09-23T03:58:53.136Z,5.73
2022-09-23T04:01:21.644Z,4.13
2022-09-23T04:03:49.967Z,3.70
2022-09-23T04:06:18.914Z,3.60
2022-09-23T04:08:47.274Z,4.23
2022-09-23T04:11:15.597Z,5.27
2022-09-23T04:13:43.799Z,4.43
2022-09-23T04:16:12.339Z,3.63
2022-09-23T04:18:41.120Z,3.63
2022-09-23T04:21:09.602Z,4.03
2022-09-23T04:23:37.863Z,3.80
2022-09-23T04:26:06.551Z,4.33
2022-09-23T04:28:34.944Z,4.13
2022-09-23T04:31:07.082Z,3.23
2022-09-23T04:33:35.430Z,3.37
2022-09-23T04:36:03.707Z,4.93
2022-09-23T04:38:31.995Z,3.50
2022-09-23T04:41:00.578Z,3.07
2022-09-23T04:43:28.811Z,3.80
2022-09-23T04:46:04.898Z,4.77
2022-09-23T04:48:33.453Z,3.90
2022-09-23T04:51:18.364Z,3.17
2022-09-23T04:53:47.745Z,2.80
2022-09-23T04:56:27.273Z,2.57
2022-09-23T04:58:58.506Z,2.80
2022-09-23T05:01:30.114Z,2.20
2022-09-23T05:04:03.004Z,2.10
2022-09-23T05:06:33.246Z,2.40
2022-09-23T05:09:01.814Z,2.53
2022-09-23T05:11:30.574Z,2.33
2022-09-23T05:13:59.218Z,1.93
2022-09-23T05:16:27.582Z,1.67
2022-09-23T05:18:56.074Z,2.00
2022-09-23T05:21:25.083Z,3.10
2022-09-23T05:23:55.433Z,4.30
2022-09-23T05:26:25.707Z,3.50
2022-09-23T05:28:54.375Z,3.47
2022-09-23T05:31:24.458Z,3.93
2022-09-23T05:33:54.169Z,3.70
2022-09-23T05:36:24.206Z,4.47
2022-09-23T05:38:53.359Z,4.83
2022-09-23T05:41:23.368Z,4.87
2022-09-23T05:43:55.544Z,4.70
2022-09-23T05:46:26.669Z,5.67
2022-09-23T05:49:02.483Z,5.27
2022-09-23T05:51:31.827Z,5.67
2022-09-23T05:54:00.534Z,5.60
2022-09-23T05:56:28.877Z,4.53
2022-09-23T05:58:58.339Z,4.50
2022-09-23T06:01:29.478Z,4.13
2022-09-23T06:03:58.375Z,4.30
2022-09-23T06:06:29.430Z,4.20
2022-09-23T06:08:59.412Z,4.33
2022-09-23T06:11:30.151Z,4.40
2022-09-23T06:14:02.641Z,4.80
2022-09-23T06:16:35.122Z,4.03
2022-09-23T06:19:06.703Z,4.03
2022-09-23T06:21:36.760Z,4.43
2022-09-23T06:24:05.625Z,4.60
2022-09-23T06:26:35.467Z,3.90
2022-09-23T06:29:04.830Z,3.63
2022-09-23T06:31:33.301Z,3.60
2022-09-23T06:34:10.689Z,3.60
2022-09-23T06:36:46.188Z,3.63
2022-09-23T06:39:15.583Z,3.40
2022-09-23T06:41:45.028Z,3.13
2022-09-23T06:44:14.489Z,3.17
2022-09-23T06:46:43.037Z,3.00
2022-09-23T06:49:12.414Z,4.17
2022-09-23T06:51:42.188Z,3.13
2022-09-23T06:54:14.385Z,2.77
2022-09-23T06:56:44.059Z,3.53
2022-09-23T06:59:13.316Z,3.37
2022-09-23T07:01:41.951Z,2.93
2022-09-23T07:04:11.029Z,2.83
2022-09-23T07:06:39.496Z,2.60
2022-09-23T07:09:08.004Z,3.87
2022-09-23T07:11:36.281Z,3.40
2022-09-23T07:14:04.931Z,2.13
2022-09-23T07:16:33.874Z,2.60
2022-09-23T07:19:02.811Z,2.60
2022-09-23T07:21:31.224Z,2.77
2022-09-23T07:23:59.529Z,3.80
2022-09-23T07:26:27.913Z,6.97
2022-09-23T07:28:57.069Z,3.17
2022-09-23T07:31:37.484Z,2.87
2022-09-23T07:34:08.719Z,2.67
2022-09-23T07:36:40.985Z,2.30
2022-09-23T07:39:11.360Z,2.80
2022-09-23T07:41:40.230Z,2.60
2022-09-23T07:44:11.375Z,2.20
2022-09-23T07:46:40.471Z,2.53
2022-09-23T07:49:08.977Z,2.20
2022-09-23T07:51:38.667Z,2.40
2022-09-23T07:54:08.867Z,2.13
2022-09-23T07:56:37.601Z,1.40
2022-09-23T07:59:09.238Z,1.70
2022-09-23T08:01:42.542Z,2.00
2022-09-23T08:04:19.289Z,1.63
2022-09-23T08:06:49.567Z,1.23
2022-09-23T08:09:19.872Z,1.60
2022-09-23T08:11:48.651Z,6.20
2022-09-23T08:14:18.776Z,2.83
2022-09-23T08:16:47.925Z,1.57
2022-09-23T08:19:16.468Z,1.40
2022-09-23T08:21:47.892Z,0.90
2022-09-23T08:24:21.132Z,1.20
2022-09-23T08:26:49.717Z,0.93
2022-09-23T08:29:19.115Z,1.40
2022-09-23T08:31:48.155Z,1.10
2022-09-23T08:34:19.942Z,1.80
2022-09-23T08:36:48.483Z,2.43
2022-09-23T08:39:18.119Z,4.90
2022-09-23T08:42:22.405Z,1.10
2022-09-23T08:44:54.568Z,2.03
2022-09-23T08:47:31.739Z,1.70
2022-09-23T08:50:25.195Z,0.90
2022-09-23T08:53:04.368Z,0.83
2022-09-23T08:55:38.188Z,1.00
2022-09-23T08:58:25.339Z,0.83
2022-09-23T09:01:02.847Z,2.00
2022-09-23T09:03:36.150Z,1.00
2022-09-23T09:06:04.794Z,0.80
2022-09-23T09:08:35.308Z,0.97
2022-09-23T09:11:03.638Z,1.93
2022-09-23T09:13:44.232Z,7.07
2022-09-23T09:16:58.996Z,1.53
2022-09-23T09:19:53.099Z,0.80
2022-09-23T09:22:38.081Z,1.43
2022-09-23T09:25:34.215Z,2.60
2022-09-23T09:28:04.709Z,1.37
2022-09-23T09:30:33.508Z,1.00
2022-09-23T09:33:07.138Z,1.03
2022-09-23T09:35:54.088Z,0.70
2022-09-23T09:38:22.492Z,1.08
2022-09-23T09:40:50.937Z,1.00
2022-09-23T09:43:25.519Z,0.80
2022-09-23T09:46:22.062Z,0.73
2022-09-23T09:49:08.904Z,0.90
2022-09-23T09:51:40.054Z,1.23
2022-09-23T09:54:23.319Z,1.00
2022-09-23T09:56:51.885Z,0.80
2022-09-23T09:59:30.272Z,0.75
2022-09-23T10:02:21.743Z,0.70
2022-09-23T10:05:23.241Z,0.65
2022-09-23T10:07:51.759Z,0.70
2022-09-23T10:10:33.493Z,1.00
2022-09-23T10:13:15.330Z,0.90
2022-09-23T10:15:47.485Z,0.63
2022-09-23T10:18:38.991Z,0.90
2022-09-23T10:21:14.690Z,0.80
2022-09-23T10:23:45.457Z,1.10
2022-09-23T10:26:15.399Z,1.00
2022-09-23T10:28:53.466Z,1.35
2022-09-23T10:31:30.232Z,0.93
2022-09-23T10:34:04.463Z,3.40
2022-09-23T10:36:33.413Z,1.30
2022-09-23T10:39:22.896Z,0.70
2022-09-23T10:42:17.009Z,1.08
2022-09-23T10:45:20.911Z,1.30
2022-09-23T10:48:06.139Z,0.67
2022-09-23T10:50:42.352Z,0.60
2022-09-23T10:53:42.576Z,0.57
2022-09-23T10:56:16.688Z,0.60
2022-09-23T10:58:59.238Z,0.70
2022-09-23T11:01:39.491Z,0.50
2022-09-23T11:04:25.256Z,0.40
2022-09-23T11:07:21.462Z,0.40
2022-09-23T11:10:41.944Z,0.60
2022-09-23T11:13:33.258Z,0.60
2022-09-23T11:16:26.265Z,0.50
2022-09-23T11:18:54.613Z,0.60
2022-09-23T11:21:41.107Z,0.75
2022-09-23T11:24:36.549Z,0.80
2022-09-23T11:27:26.330Z,0.80
2022-09-23T11:30:06.900Z,0.50
2022-09-23T11:32:44.136Z,0.50
2022-09-23T11:35:33.116Z,0.35
2022-09-23T11:38:08.698Z,0.65
2022-09-23T11:40:43.898Z,0.82
2022-09-23T11:43:33.697Z,0.60
2022-09-23T11:46:20.891Z,0.80
2022-09-23T11:48:57.741Z,0.50
2022-09-23T11:51:41.278Z,0.60
2022-09-23T11:54:26.498Z,0.60
2022-09-23T11:56:57.720Z,0.80
2022-09-23T11:59:49.670Z,0.60
2022-09-23T12:02:36.424Z,0.70
2022-09-23T12:05:15.129Z,0.60
2022-09-23T12:07:46.687Z,0.60
2022-09-23T12:10:15.362Z,0.80
2022-09-23T12:13:27.727Z,0.60
2022-09-23T12:16:32.688Z,0.60
2022-09-23T12:19:11.564Z,0.90
2022-09-23T12:21:56.932Z,0.73
2022-09-23T12:24:47.119Z,0.80
2022-09-23T12:27:46.043Z,0.60
2022-09-23T12:30:22.755Z,0.55
2022-09-23T12:32:51.518Z,0.70
2022-09-23T12:35:35.927Z,0.60
2022-09-23T12:38:12.030Z,0.80
2022-09-23T12:40:44.156Z,0.88
2022-09-23T12:43:19.196Z,0.80
2022-09-23T12:45:48.325Z,0.50
2022-09-23T12:48:16.768Z,0.57
2022-09-23T12:51:18.979Z,0.60
2022-09-23T12:54:05.599Z,0.73
2022-09-23T12:56:36.727Z,0.60
2022-09-23T12:59:30.007Z,0.63
2022-09-23T13:01:58.925Z,0.70
2022-09-23T13:04:51.078Z,0.98
2022-09-23T13:07:34.333Z,0.70
2022-09-23T13:10:24.311Z,0.60
2022-09-23T13:12:53.659Z,0.80
2022-09-23T13:15:31.491Z,0.73
2022-09-23T13:18:22.250Z,0.60
2022-09-23T13:20:54.366Z,0.73
2022-09-23T13:23:31.572Z,0.80
2022-09-23T13:26:10.298Z,0.77
2022-09-23T13:28:55.037Z,0.63
2022-09-23T13:31:23.435Z,0.60
2022-09-23T13:34:03.590Z,0.60
2022-09-23T13:36:36.974Z,0.80
2022-09-23T13:39:24.847Z,0.90
2022-09-23T13:41:54.349Z,1.08
2022-09-23T13:44:22.921Z,1.13
2022-09-23T13:46:53.833Z,1.20
2022-09-23T13:49:22.139Z,0.97
2022-09-23T13:51:53.698Z,0.63
2022-09-23T13:54:29.245Z,0.80
2022-09-23T13:56:57.604Z,0.63
2022-09-23T13:59:30.030Z,0.55
2022-09-23T14:02:12.365Z,0.77
2022-09-23T14:04:43.272Z,1.00
2022-09-23T14:07:15.770Z,0.95
2022-09-23T14:09:45.648Z,0.77
2022-09-23T14:12:14.538Z,0.60
2022-09-23T14:14:44.352Z,0.57
2022-09-23T14:17:14.858Z,0.70
2022-09-23T14:19:44.963Z,0.50
2022-09-23T14:22:27.728Z,0.70
2022-09-23T14:24:56.709Z,0.82
2022-09-23T14:27:31.571Z,0.70
2022-09-23T14:30:00.711Z,0.77
2022-09-23T14:32:30.201Z,0.90
2022-09-23T14:35:01.655Z,0.90
2022-09-23T14:37:58.028Z,1.00
2022-09-23T14:40:49.294Z,1.15
2022-09-23T14:43:18.395Z,1.30
2022-09-23T14:45:48.926Z,1.00
2022-09-23T14:48:19.349Z,0.85
2022-09-23T14:50:58.455Z,0.80
2022-09-23T14:53:31.156Z,0.82
2022-09-23T14:56:08.319Z,1.20
2022-09-23T14:58:49.615Z,1.02
2022-09-23T15:01:32.912Z,1.48
2022-09-23T15:04:21.927Z,1.10
2022-09-23T15:06:58.740Z,1.05
2022-09-23T15:09:31.702Z,1.08
2022-09-23T15:12:07.783Z,1.13
2022-09-23T15:14:50.811Z,2.83
2022-09-23T15:17:25.080Z,1.88
2022-09-23T15:19:58.048Z,3.58
2022-09-23T15:22:26.847Z,4.38
2022-09-23T15:25:15.770Z,3.53
2022-09-23T15:28:00.072Z,3.63
2022-09-23T15:30:28.996Z,3.60
2022-09-23T15:32:58.165Z,3.42
2022-09-23T15:35:28.450Z,2.95
2022-09-23T15:37:59.159Z,3.20
2022-09-23T15:40:35.363Z,3.33
2022-09-23T15:43:29.255Z,8.13
2022-09-23T15:45:59.120Z,5.10
2022-09-23T15:48:32.754Z,2.40
2022-09-23T15:51:04.397Z,2.20
2022-09-23T15:53:34.297Z,1.90
2022-09-23T15:56:03.345Z,2.53
2022-09-23T15:58:32.494Z,2.27
2022-09-23T16:01:04.691Z,4.23
2022-09-23T16:03:33.591Z,4.40
2022-09-23T16:06:05.580Z,8.43
2022-09-23T16:08:33.933Z,5.93
2022-09-23T16:11:02.416Z,2.73
2022-09-23T16:13:30.900Z,6.30
2022-09-23T16:16:00.990Z,3.80
2022-09-23T16:18:30.330Z,4.37
2022-09-23T16:21:02.434Z,12.70
2022-09-23T16:23:37.404Z,12.73
2022-09-23T16:26:18.629Z,27.87
2022-09-23T16:28:50.485Z,4.60
2022-09-23T16:31:20.011Z,1.90
2022-09-23T16:33:49.342Z,1.93
2022-09-23T16:36:17.643Z,2.40
2022-09-23T16:38:48.408Z,1.60
2022-09-23T16:41:16.846Z,1.80
2022-09-23T16:43:45.296Z,2.00
2022-09-23T16:46:15.957Z,4.43
2022-09-23T16:48:51.389Z,7.07
2022-09-23T16:51:22.687Z,9.60
2022-09-23T16:53:53.114Z,5.80
2022-09-23T16:56:28.190Z,7.67
2022-09-23T16:58:57.254Z,4.03
2022-09-23T17:01:46.088Z,2.97
2022-09-23T17:04:17.122Z,3.57
2022-09-23T17:06:50.444Z,6.20
2022-09-23T17:09:20.448Z,6.03
2022-09-23T17:11:54.166Z,5.93
2022-09-23T17:14:28.279Z,7.20
2022-09-23T17:16:59.930Z,8.77
2022-09-23T17:19:30.857Z,6.73
2022-09-23T17:22:00.282Z,7.57
2022-09-23T17:24:28.908Z,7.13
2022-09-23T17:26:57.269Z,5.70
2022-09-23T17:29:27.117Z,5.80
2022-09-23T17:31:56.364Z,3.90
2022-09-23T17:34:30.396Z,3.43
2022-09-23T17:37:01.935Z,2.70
2022-09-23T17:39:34.521Z,2.73
2022-09-23T17:42:10.449Z,6.27
2022-09-23T17:44:41.053Z,13.03
2022-09-23T17:47:12.407Z,13.80
2022-09-23T17:49:42.688Z,13.63
2022-09-23T17:52:11.989Z,12.40
2022-09-23T17:54:41.228Z,12.07
2022-09-23T17:57:19.657Z,15.90
2022-09-23T17:59:52.759Z,22.03
2022-09-23T18:02:23.779Z,28.17
2022-09-23T18:04:57.637Z,30.60
2022-09-23T18:07:30.499Z,32.33
2022-09-23T18:10:00.506Z,33.30
2022-09-23T18:12:31.839Z,33.70
2022-09-23T18:15:00.674Z,34.23
2022-09-23T18:17:30.819Z,36.97
2022-09-23T18:20:03.319Z,32.90
2022-09-23T18:22:34.934Z,33.80
2022-09-23T18:25:38.283Z,31.67
2022-09-23T18:28:07.783Z,23.17
2022-09-23T18:30:37.123Z,20.90
2022-09-23T18:33:18.749Z,18.07
2022-09-23T18:36:00.010Z,23.43
2022-09-23T18:38:33.199Z,23.53
2022-09-23T18:41:20.973Z,21.80
2022-09-23T18:43:56.610Z,16.03
2022-09-23T18:46:47.111Z,13.13
2022-09-23T18:49:40.857Z,12.00
2022-09-23T18:52:11.883Z,12.50
2022-09-23T18:54:43.830Z,13.80
2022-09-23T18:57:14.912Z,11.00
2022-09-23T18:59:45.452Z,14.33
2022-09-23T19:02:17.442Z,19.73
2022-09-23T19:04:48.153Z,18.73
2022-09-23T19:07:23.218Z,18.50
2022-09-23T19:09:54.811Z,18.00
2022-09-23T19:12:23.959Z,23.20
2022-09-23T19:14:53.180Z,16.60
2022-09-23T19:17:23.217Z,9.43
2022-09-23T19:20:02.698Z,6.07
2022-09-23T19:22:43.806Z,8.70
2022-09-23T19:25:14.805Z,8.93
2022-09-23T19:27:49.239Z,9.13
2022-09-23T19:30:20.095Z,11.97
2022-09-23T19:32:50.378Z,22.70
2022-09-23T19:35:21.031Z,18.47
2022-09-23T19:37:58.179Z,19.23
2022-09-23T19:40:32.772Z,10.37
2022-09-23T19:43:05.704Z,6.20
2022-09-23T19:45:38.764Z,11.50
2022-09-23T19:48:09.950Z,10.03
2022-09-23T19:50:40.058Z,9.47
2022-09-23T19:53:09.890Z,6.13
2022-09-23T19:55:39.412Z,4.20
2022-09-23T19:58:13.133Z,3.00
2022-09-23T20:00:42.462Z,2.50
2022-09-23T20:03:12.860Z,2.67
2022-09-23T20:05:41.670Z,2.00
2022-09-23T20:08:12.125Z,1.83
2022-09-23T20:10:47.800Z,1.67
2022-09-23T20:16:06.627Z,2.20
2022-09-23T20:18:37.510Z,10.57
2022-09-23T20:21:06.602Z,15.53
2022-09-23T20:23:35.722Z,14.60
2022-09-23T20:26:25.541Z,15.13
2022-09-23T20:28:53.986Z,14.80
2022-09-23T20:31:22.669Z,14.50
2022-09-23T20:33:58.650Z,13.90
2022-09-23T20:36:27.565Z,15.63
2022-09-23T20:38:56.949Z,17.83
2022-09-23T20:41:25.267Z,13.27
2022-09-23T20:43:59.728Z,14.17
2022-09-23T20:46:28.933Z,11.93
2022-09-23T20:48:57.423Z,12.27
2022-09-23T20:51:27.278Z,9.63
2022-09-23T20:53:56.191Z,8.70
2022-09-23T20:56:29.387Z,9.10
2022-09-23T20:59:02.502Z,8.67
2022-09-23T21:01:34.567Z,10.60
2022-09-23T21:04:11.558Z,11.03
2022-09-23T21:06:40.010Z,10.70
2022-09-23T21:09:08.385Z,7.53
2022-09-23T21:11:36.665Z,6.57
2022-09-23T21:14:06.067Z,6.67
2022-09-23T21:16:34.704Z,6.43
2022-09-23T21:19:04.086Z,6.90
2022-09-23T21:21:32.433Z,6.80
2022-09-23T21:24:23.924Z,7.73
2022-09-23T21:26:50.648Z,7.93
2022-09-23T21:29:19.023Z,8.57
2022-09-23T21:31:49.906Z,9.43
2022-09-23T21:34:18.378Z,11.27
2022-09-23T21:36:48.266Z,10.30
2022-09-23T21:39:16.672Z,9.70
2022-09-23T21:41:45.031Z,27.70
2022-09-23T21:44:13.472Z,11.43
2022-09-23T21:46:41.881Z,11.50
2022-09-23T21:49:10.253Z,12.80
2022-09-23T21:51:41.303Z,12.23
2022-09-23T21:54:15.950Z,9.43
2022-09-23T21:56:44.519Z,7.97
2022-09-23T21:59:13.256Z,8.47
2022-09-23T22:01:44.719Z,9.00
2022-09-23T22:04:18.190Z,8.77
2022-09-23T22:06:49.128Z,9.17
2022-09-23T22:09:19.044Z,7.17
2022-09-23T22:12:07.961Z,6.53
2022-09-23T22:14:36.584Z,5.43
2022-09-23T22:17:05.978Z,9.00
2022-09-23T22:19:35.920Z,5.40
2022-09-23T22:22:08.826Z,5.33
2022-09-23T22:24:37.051Z,4.73
2022-09-23T22:27:05.295Z,4.13
2022-09-23T22:29:51.946Z,4.17
2022-09-23T22:32:38.715Z,3.73
2022-09-23T22:35:19.463Z,3.23
2022-09-23T22:37:48.239Z,2.73
2022-09-23T22:40:16.792Z,2.90
2022-09-23T22:42:45.849Z,2.70
2022-09-23T22:45:14.210Z,4.00
2022-09-23T22:47:44.379Z,3.30
2022-09-23T22:50:14.133Z,3.10
2022-09-23T22:52:42.730Z,2.77
2022-09-23T22:55:11.334Z,3.70
2022-09-23T22:57:39.656Z,3.10
2022-09-23T23:00:08.703Z,2.77
2022-09-23T23:02:37.005Z,3.27
2022-09-23T23:05:05.789Z,3.67
2022-09-23T23:07:35.327Z,3.37
2022-09-23T23:10:04.915Z,2.83
2022-09-23T23:12:33.809Z,3.43
2022-09-23T23:15:02.089Z,3.90
2022-09-23T23:17:30.626Z,4.13
2022-09-23T23:19:58.880Z,3.57
2022-09-23T23:22:28.695Z,4.13
2022-09-23T23:24:57.059Z,3.47
2022-09-23T23:27:25.240Z,3.30
2022-09-23T23:29:53.513Z,3.80
2022-09-23T23:32:21.810Z,3.07
2022-09-23T23:34:49.988Z,2.97
2022-09-23T23:37:20.906Z,2.83
2022-09-23T23:39:49.538Z,3.20
2022-09-23T23:42:17.985Z,2.50
2022-09-23T23:44:46.334Z,2.40
2022-09-23T23:47:14.805Z,2.40
2022-09-23T23:49:43.071Z,2.33
2022-09-23T23:52:11.390Z,2.50
2022-09-23T23:54:39.641Z,2.90
2022-09-23T23:57:07.898Z,2.37
2022-09-23T23:59:36.180Z,2.57
